Time;durP1;ratioP1;P1;durP2;ratioP2;P2;SDS_P1;SDS_P2;PMS_P1;PMS_P2;Temp;Humidity;BMP_temperature;BMP_pressure;BME280_temperature;BME280_humidity;BME280_pressure;Samples;Min_cycle;Max_cycle;Signal;HPM_P1;HPM_P2
2023/10/17 00:02:51;;;;;;;25.92;24.02;;;18.30;99.90;;;;;;4919655;29;20111;-82
2023/10/17 00:05:20;;;;;;;25.05;23.48;;;18.30;99.90;;;;;;4934867;29;20473;-82
2023/10/17 00:07:50;;;;;;;25.27;23.70;;;18.30;99.90;;;;;;4955902;29;20038;-82
2023/10/17 00:10:20;;;;;;;25.25;23.55;;;18.40;99.90;;;;;;4955978;29;20388;-82
2023/10/17 00:12:51;;;;;;;25.10;23.55;;;18.40;99.90;;;;;;4938563;29;20114;-82
2023/10/17 00:15:35;;;;;;;25.52;23.83;;;18.40;99.90;;;;;;4931179;29;20090;-82
2023/10/17 00:18:19;;;;;;;25.42;23.65;;;18.40;99.90;;;;;;4938428;29;20099;-82
2023/10/17 00:20:45;;;;;;;25.08;23.55;;;18.40;99.90;;;;;;4922517;29;20036;-82
2023/10/17 00:23:15;;;;;;;25.10;23.35;;;18.40;99.90;;;;;;4935358;29;20543;-82
2023/10/17 00:25:49;;;;;;;25.02;23.45;;;18.40;99.90;;;;;;4919018;29;20042;-81
2023/10/17 00:28:20;;;;;;;25.25;23.38;;;18.40;99.90;;;;;;4935012;29;20028;-82
2023/10/17 00:30:50;;;;;;;24.83;23.23;;;18.40;99.90;;;;;;4935025;29;20134;-82
2023/10/17 00:33:23;;;;;;;25.27;23.35;;;18.40;99.90;;;;;;4903417;29;20067;-85
2023/10/17 00:35:51;;;;;;;;;;;18.40;99.90;;;;;;4919570;29;20091;-82
2023/10/17 00:38:17;;;;;;;25.30;23.60;;;18.40;99.90;;;;;;4903690;29;19911;-82
2023/10/17 00:43:13;;;;;;;25.10;23.20;;;18.30;99.90;;;;;;4918833;29;20393;-82
2023/10/17 00:45:45;;;;;;;25.15;23.55;;;18.30;99.90;;;;;;4918918;29;20043;-82
2023/10/17 00:48:18;;;;;;;25.15;23.38;;;18.30;99.90;;;;;;4919310;29;20057;-81
2023/10/17 00:50:50;;;;;;;25.10;23.50;;;18.30;99.90;;;;;;4919199;29;20038;-82
2023/10/17 00:53:17;;;;;;;24.95;23.25;;;18.20;99.90;;;;;;4919162;29;20039;-83
2023/10/17 00:55:51;;;;;;;24.80;23.35;;;18.30;99.90;;;;;;4918003;29;20032;-85
2023/10/17 00:58:24;;;;;;;25.20;23.70;;;18.30;99.90;;;;;;4919002;29;20043;-84
2023/10/17 01:01:15;;;;;;;25.02;23.52;;;18.30;99.90;;;;;;4918973;29;20042;-84
2023/10/17 01:03:43;;;;;;;24.85;23.20;;;18.40;99.90;;;;;;4920265;29;20035;-83
2023/10/17 01:08:57;;;;;;;25.77;23.63;;;18.30;99.90;;;;;;4937643;29;20035;-84
2023/10/17 01:11:30;;;;;;;25.13;23.17;;;18.30;99.90;;;;;;4937882;29;20424;-84
2023/10/17 01:13:57;;;;;;;24.48;22.98;;;18.30;99.90;;;;;;4951117;29;20461;-84
2023/10/17 01:16:25;;;;;;;24.45;22.85;;;18.20;99.90;;;;;;4935771;29;20043;-84
2023/10/17 01:18:56;;;;;;;24.58;23.05;;;18.10;99.90;;;;;;4918933;29;20028;-84
2023/10/17 01:21:23;;;;;;;24.25;22.75;;;18.10;99.90;;;;;;4902885;29;20564;-84
2023/10/17 01:23:51;;;;;;;24.60;23.10;;;18.00;99.90;;;;;;4937997;29;20111;-85
2023/10/17 01:26:23;;;;;;;25.15;23.38;;;18.00;99.90;;;;;;4921887;29;20032;-84
2023/10/17 01:28:53;;;;;;;25.05;23.17;;;18.00;99.90;;;;;;4922029;29;20049;-85
2023/10/17 01:31:24;;;;;;;25.05;23.33;;;18.00;99.90;;;;;;4937727;29;20552;-85
2023/10/17 01:33:59;;;;;;;24.67;22.92;;;18.00;99.90;;;;;;4935231;29;20054;-84
2023/10/17 01:36:26;;;;;;;24.40;22.88;;;17.90;99.90;;;;;;4903157;29;20366;-84
2023/10/17 01:38:54;;;;;;;24.23;22.67;;;17.90;99.90;;;;;;4918819;29;20027;-84
2023/10/17 01:41:25;;;;;;;24.88;23.23;;;17.80;99.90;;;;;;4918858;29;20119;-85
2023/10/17 01:43:52;;;;;;;24.60;23.00;;;17.80;99.90;;;;;;4898137;29;20041;-84
2023/10/17 01:46:21;;;;;;;24.20;22.70;;;17.80;99.90;;;;;;4918615;29;20031;-84
2023/10/17 01:48:50;;;;;;;24.27;22.67;;;17.70;99.90;;;;;;4918368;29;20035;-84
2023/10/17 01:51:16;;;;;;;25.40;23.30;;;17.80;99.90;;;;;;4902621;29;20020;-84
2023/10/17 01:53:50;;;;;;;25.45;23.38;;;17.80;99.90;;;;;;4935384;29;20609;-84
2023/10/17 01:56:26;;;;;;;25.10;23.10;;;17.80;99.90;;;;;;4902828;29;20038;-84
2023/10/17 01:59:12;;;;;;;24.80;23.20;;;17.80;99.90;;;;;;4918401;29;20389;-84
2023/10/17 02:01:42;;;;;;;24.52;22.92;;;17.90;99.90;;;;;;4902616;29;20028;-84
2023/10/17 02:04:18;;;;;;;24.42;22.90;;;17.90;99.90;;;;;;4899272;29;20396;-84
2023/10/17 02:06:48;;;;;;;24.05;22.45;;;17.90;99.90;;;;;;4883992;29;20398;-84
2023/10/17 02:12:00;;;;;;;24.10;22.48;;;18.00;99.90;;;;;;4899456;29;20032;-84
2023/10/17 02:14:27;;;;;;;24.08;22.40;;;17.90;99.90;;;;;;4890237;29;20047;-84
2023/10/17 02:16:55;;;;;;;24.70;22.55;;;17.90;99.90;;;;;;4937116;29;20027;-84
2023/10/17 02:19:25;;;;;;;23.63;22.02;;;17.90;99.90;;;;;;4906059;29;20084;-85
2023/10/17 02:21:54;;;;;;;24.52;22.77;;;17.90;99.90;;;;;;4896542;29;20502;-84
2023/10/17 02:24:24;;;;;;;24.10;22.35;;;17.90;99.90;;;;;;4908368;29;20096;-84
2023/10/17 02:26:56;;;;;;;24.02;22.42;;;17.90;99.90;;;;;;4905717;29;20043;-84
2023/10/17 02:29:26;;;;;;;25.00;22.95;;;18.00;99.90;;;;;;4938545;29;20032;-84
2023/10/17 02:31:55;;;;;;;25.02;23.23;;;18.00;99.90;;;;;;4921181;29;20501;-84
2023/10/17 02:34:22;;;;;;;25.35;23.40;;;18.00;99.90;;;;;;4902165;29;20409;-84
2023/10/17 02:36:49;;;;;;;24.23;22.42;;;18.00;99.90;;;;;;4902382;29;20520;-84
2023/10/17 02:39:16;;;;;;;24.55;22.83;;;18.00;99.90;;;;;;4886719;29;20032;-84
2023/10/17 02:41:45;;;;;;;24.10;22.50;;;18.00;99.90;;;;;;4902283;29;20027;-85
2023/10/17 02:44:18;;;;;;;24.30;22.60;;;18.00;99.90;;;;;;4933806;29;20043;-85
2023/10/17 02:46:45;;;;;;;23.83;22.23;;;18.00;99.90;;;;;;4940227;29;20540;-84
2023/10/17 02:49:16;;;;;;;23.58;21.98;;;18.00;99.90;;;;;;4940259;29;20023;-84
2023/10/17 02:51:43;;;;;;;25.45;23.30;;;18.00;99.90;;;;;;4940246;29;20027;-84
2023/10/17 02:54:16;;;;;;;25.90;23.63;;;18.00;99.90;;;;;;4937112;29;20127;-84
2023/10/17 02:56:46;;;;;;;25.27;23.17;;;18.00;99.90;;;;;;4937129;29;20032;-84
2023/10/17 02:59:17;;;;;;;25.23;23.20;;;18.00;99.90;;;;;;4936747;29;20119;-84
2023/10/17 03:01:44;;;;;;;25.50;23.42;;;18.00;99.90;;;;;;4937909;29;20565;-82
2023/10/17 03:04:13;;;;;;;25.52;23.25;;;17.90;99.90;;;;;;4936395;29;20027;-83
2023/10/17 03:06:47;;;;;;;25.80;23.40;;;18.00;99.90;;;;;;4952239;29;20024;-82
2023/10/17 03:09:26;;;;;;;25.30;23.23;;;18.00;99.90;;;;;;4936262;29;20488;-82
2023/10/17 03:17:15;;;;;;;25.58;23.35;;;18.00;99.90;;;;;;4939407;29;20051;-82
2023/10/17 03:19:42;;;;;;;25.52;23.40;;;18.00;99.90;;;;;;4939436;29;20027;-84
2023/10/17 03:22:27;;;;;;;26.08;23.88;;;18.00;99.90;;;;;;4936961;29;20035;-84
2023/10/17 03:25:02;;;;;;;24.80;22.77;;;18.00;99.90;;;;;;4955554;29;20385;-84
2023/10/17 03:27:47;;;;;;;24.80;22.58;;;18.00;99.90;;;;;;4955363;28;20046;-84
2023/10/17 03:30:19;;;;;;;25.27;22.92;;;18.00;99.90;;;;;;4955932;29;20038;-84
2023/10/17 03:35:35;;;;;;;23.70;22.00;;;18.00;99.90;;;;;;4955361;29;20035;-83
2023/10/17 03:38:08;;;;;;;23.67;21.95;;;18.00;99.90;;;;;;4955613;29;20031;-84
2023/10/17 03:40:40;;;;;;;23.42;21.63;;;18.00;99.90;;;;;;4956616;28;20110;-83
2023/10/17 03:43:15;;;;;;;23.80;22.00;;;18.00;99.90;;;;;;4939108;29;20126;-83
2023/10/17 03:46:04;;;;;;;23.90;22.17;;;18.00;99.90;;;;;;4954799;29;20039;-84
2023/10/17 03:48:37;;;;;;;23.80;21.90;;;18.00;99.90;;;;;;4955218;29;20572;-84
2023/10/17 03:53:36;;;;;;;23.40;21.80;;;18.00;99.90;;;;;;4955951;28;20503;-84
2023/10/17 03:56:08;;;;;;;25.30;22.75;;;18.00;99.90;;;;;;4938839;29;20071;-84
2023/10/17 04:01:18;;;;;;;23.73;21.92;;;17.90;99.90;;;;;;4955081;29;20103;-87
2023/10/17 04:03:47;;;;;;;24.02;21.92;;;18.00;99.90;;;;;;4955127;29;20033;-86
2023/10/17 04:06:20;;;;;;;24.10;22.30;;;18.00;99.90;;;;;;4920225;29;20036;-86
2023/10/17 04:08:59;;;;;;;23.70;21.98;;;17.90;99.90;;;;;;4920258;29;20036;-86
2023/10/17 04:11:27;;;;;;;23.58;21.75;;;17.90;99.90;;;;;;4935859;29;20116;-85
2023/10/17 04:14:02;;;;;;;23.75;21.83;;;17.90;99.90;;;;;;4936178;29;20650;-85
2023/10/17 04:19:00;;;;;;;23.67;22.05;;;17.90;99.90;;;;;;4954424;29;20054;-82
2023/10/17 04:21:31;;;;;;;24.40;22.50;;;17.90;99.90;;;;;;4955662;28;20023;-84
2023/10/17 04:24:05;;;;;;;23.48;21.70;;;18.00;99.90;;;;;;4935571;29;20035;-85
2023/10/17 04:26:35;;;;;;;23.98;22.08;;;18.00;99.90;;;;;;4938350;29;20448;-84
2023/10/17 04:29:12;;;;;;;23.98;21.90;;;18.00;99.90;;;;;;4954306;29;20396;-84
2023/10/17 04:31:43;;;;;;;23.45;21.80;;;18.00;99.90;;;;;;4938368;29;20400;-84
2023/10/17 04:34:26;;;;;;;23.98;22.23;;;18.00;99.90;;;;;;4954151;29;20412;-83
2023/10/17 04:36:55;;;;;;;24.80;22.88;;;18.00;99.90;;;;;;4955100;29;20089;-83
2023/10/17 04:39:48;;;;;;;25.08;23.00;;;18.00;99.90;;;;;;4953499;28;20421;-84
2023/10/17 04:43:43;;;;;;;25.23;23.20;;;18.00;99.90;;;;;;4935361;29;20421;-84
2023/10/17 04:45:13;;;;;;;24.60;22.90;;;18.10;99.90;;;;;;4939286;29;20078;-84
2023/10/17 04:47:45;;;;;;;23.88;22.23;;;18.10;99.90;;;;;;4938088;29;20063;-84
2023/10/17 04:50:12;;;;;;;24.13;21.83;;;18.10;99.90;;;;;;4954119;29;20118;-83
2023/10/17 04:52:44;;;;;;;23.83;22.13;;;18.10;99.90;;;;;;4938135;29;20404;-84
2023/10/17 04:55:18;;;;;;;23.77;21.92;;;18.10;99.90;;;;;;4934879;29;20460;-84
2023/10/17 04:57:58;;;;;;;;;;;18.10;99.90;;;;;;4951296;29;20024;-84
2023/10/17 05:01:17;;;;;;;24.20;22.38;;;18.10;99.90;;;;;;4935186;29;19911;-84
2023/10/17 05:03:20;;;;;;;25.38;23.25;;;18.10;99.90;;;;;;4928354;29;20046;-84
2023/10/17 05:06:15;;;;;;;24.60;22.60;;;18.00;99.90;;;;;;4934535;29;20145;-84
2023/10/17 06:17:59;;;;;;;24.52;22.50;;;18.80;99.90;;;;;;4945035;29;19911;-80
2023/10/17 06:21:06;;;;;;;22.15;20.30;;;18.70;99.90;;;;;;4937424;29;20059;-80
2023/10/17 06:23:23;;;;;;;23.13;18.77;;;18.60;99.90;;;;;;4937372;29;20055;-80
2023/10/17 06:28:34;;;;;;;16.40;14.80;;;18.40;99.90;;;;;;4957505;28;20034;-80
2023/10/17 06:34:00;;;;;;;14.45;13.35;;;18.10;99.90;;;;;;4958019;29;20073;-80
2023/10/17 06:36:28;;;;;;;15.60;13.07;;;18.00;99.90;;;;;;4955035;28;20027;-80
2023/10/17 06:38:55;;;;;;;15.07;12.65;;;17.90;99.90;;;;;;4936952;29;20434;-80
2023/10/17 06:41:29;;;;;;;14.98;13.55;;;17.80;99.90;;;;;;4936973;29;20111;-80
2023/10/17 06:43:58;;;;;;;16.08;14.10;;;17.90;99.90;;;;;;4936670;29;20135;-80
2023/10/17 06:46:40;;;;;;;15.25;13.77;;;17.80;99.90;;;;;;4953878;29;20393;-80
2023/10/17 06:49:08;;;;;;;16.98;13.27;;;17.80;99.90;;;;;;4955918;29;20095;-80
2023/10/17 06:51:50;;;;;;;16.13;13.25;;;17.80;99.90;;;;;;4957078;28;20500;-80
2023/10/17 06:54:24;;;;;;;17.45;11.90;;;17.70;99.90;;;;;;4956836;29;20499;-80
2023/10/17 06:56:55;;;;;;;18.10;12.63;;;17.70;99.90;;;;;;4952288;29;20075;-81
2023/10/17 06:59:24;;;;;;;14.85;12.30;;;17.70;99.90;;;;;;4937771;29;20453;-80
2023/10/17 07:04:43;;;;;;;14.82;13.32;;;17.50;99.90;;;;;;4940660;29;20134;-80
2023/10/17 07:07:09;;;;;;;17.42;12.73;;;17.60;99.90;;;;;;4949768;28;20374;-80
2023/10/17 07:09:39;;;;;;;14.35;12.02;;;17.60;99.90;;;;;;4937665;29;20426;-82
2023/10/17 07:12:13;;;;;;;20.98;12.80;;;17.50;99.90;;;;;;4920570;29;20116;-80
2023/10/17 07:14:47;;;;;;;16.30;11.98;;;17.50;99.90;;;;;;4940070;29;20042;-80
2023/10/17 07:17:25;;;;;;;14.25;11.02;;;17.50;99.90;;;;;;4936097;29;20079;-80
2023/10/17 07:20:12;;;;;;;17.42;11.90;;;17.40;99.90;;;;;;4936438;29;20055;-81
2023/10/17 07:22:53;;;;;;;17.48;14.73;;;17.30;99.90;;;;;;4921030;29;20119;-80
2023/10/17 07:25:20;;;;;;;15.80;14.13;;;17.10;99.90;;;;;;4945330;29;20043;-80
2023/10/17 07:27:46;;;;;;;20.60;15.45;;;17.00;99.90;;;;;;4939169;29;20024;-82
2023/10/17 07:30:13;;;;;;;17.20;15.40;;;17.00;99.90;;;;;;4956412;29;20106;-82
2023/10/17 07:32:45;;;;;;;16.92;15.35;;;17.00;99.90;;;;;;4955170;29;20031;-80
2023/10/17 07:35:22;;;;;;;15.80;13.80;;;17.10;99.90;;;;;;4956662;28;20043;-81
2023/10/17 07:37:55;;;;;;;22.90;14.90;;;17.00;99.90;;;;;;4939182;29;20144;-83
2023/10/17 07:40:58;;;;;;;21.00;14.90;;;17.00;99.90;;;;;;4938761;29;20082;-82
2023/10/17 07:43:21;;;;;;;16.63;14.83;;;16.90;99.90;;;;;;4955709;28;20037;-81
2023/10/17 07:46:06;;;;;;;16.35;14.57;;;16.90;99.90;;;;;;4904128;29;20291;-81
2023/10/17 07:48:34;;;;;;;16.15;13.35;;;16.90;99.90;;;;;;4904177;29;20606;-81
2023/10/17 07:51:04;;;;;;;20.27;15.45;;;16.90;99.90;;;;;;4920007;29;20442;-81
2023/10/17 07:53:32;;;;;;;19.45;14.68;;;16.90;99.90;;;;;;4936758;29;20035;-81
2023/10/17 07:56:12;;;;;;;18.17;13.85;;;16.90;99.90;;;;;;4936693;29;20023;-81
2023/10/17 07:58:41;;;;;;;15.32;13.50;;;16.80;99.90;;;;;;4936763;29;20028;-82
2023/10/17 08:01:09;;;;;;;21.85;14.70;;;16.90;99.90;;;;;;4903859;29;20034;-81
2023/10/17 08:03:45;;;;;;;16.20;13.70;;;17.00;99.90;;;;;;4919801;29;20031;-82
2023/10/17 08:06:12;;;;;;;22.80;14.98;;;17.10;99.90;;;;;;4919351;29;20071;-81
2023/10/17 08:08:44;;;;;;;16.25;13.23;;;17.10;99.90;;;;;;4919488;29;20445;-81
2023/10/17 08:11:53;;;;;;;24.63;14.10;;;17.20;99.90;;;;;;4903879;29;20456;-81
2023/10/17 08:14:09;;;;;;;18.30;12.32;;;17.20;99.90;;;;;;4911012;29;20533;-81
2023/10/17 08:16:48;;;;;;;15.68;12.30;;;17.30;99.90;;;;;;4902006;29;20071;-81
2023/10/17 08:19:16;;;;;;;18.00;11.93;;;17.20;99.90;;;;;;4900730;29;20048;-80
2023/10/17 08:24:33;;;;;;;23.98;12.30;;;17.20;99.90;;;;;;4917371;29;20058;-81
2023/10/17 08:30:13;;;;;;;17.48;11.55;;;17.10;99.90;;;;;;4919136;29;20163;-80
2023/10/17 08:33:09;;;;;;;19.00;12.75;;;17.10;99.90;;;;;;4918762;29;20143;-81
2023/10/17 08:35:40;;;;;;;19.67;12.52;;;17.20;99.90;;;;;;4919152;29;20031;-81
2023/10/17 08:38:09;;;;;;;21.85;12.20;;;17.30;99.90;;;;;;4903262;29;20039;-80
2023/10/17 08:43:10;;;;;;;20.98;10.50;;;17.50;99.90;;;;;;4918854;29;20144;-81
2023/10/17 08:45:39;;;;;;;22.33;12.07;;;17.30;99.90;;;;;;4936835;29;20382;-81
2023/10/17 08:48:08;;;;;;;17.80;11.40;;;17.50;99.90;;;;;;4953661;29;20032;-81
2023/10/17 08:50:43;;;;;;;13.98;11.25;;;17.60;99.90;;;;;;4953934;29;20396;-81
2023/10/17 08:55:48;;;;;;;19.10;11.13;;;17.80;99.90;;;;;;4953945;29;20032;-81
2023/10/17 08:58:15;;;;;;;16.67;11.00;;;17.90;99.90;;;;;;4937774;29;20030;-81
2023/10/17 09:03:23;;;;;;;15.95;10.63;;;18.00;99.90;;;;;;4952362;29;20110;-81
2023/10/17 09:05:58;;;;;;;18.58;10.82;;;18.00;99.90;;;;;;4953634;29;20392;-81
2023/10/17 09:11:29;;;;;;;13.00;10.27;;;18.10;99.90;;;;;;4950521;29;20481;-80
2023/10/17 09:14:24;;;;;;;19.08;10.55;;;18.30;99.90;;;;;;4935613;29;20044;-81
2023/10/17 09:17:02;;;;;;;17.23;10.98;;;18.30;99.90;;;;;;4934342;29;20054;-81
2023/10/17 09:19:52;;;;;;;16.92;10.40;;;18.20;99.90;;;;;;4936472;29;20035;-82
2023/10/17 09:22:36;;;;;;;15.40;10.23;;;18.30;99.90;;;;;;4937578;29;20039;-82
2023/10/17 09:25:19;;;;;;;30.77;15.60;;;18.30;99.90;;;;;;4938361;29;20437;-82
2023/10/17 09:27:51;;;;;;;179.38;58.50;;;18.20;99.90;;;;;;4953336;29;20028;-82
2023/10/17 09:30:18;;;;;;;169.60;54.72;;;18.10;99.90;;;;;;4938344;29;20044;-82
2023/10/17 09:32:48;;;;;;;164.13;52.20;;;18.10;99.90;;;;;;4939424;29;20023;-82
2023/10/17 09:35:18;;;;;;;137.83;45.30;;;18.20;99.90;;;;;;4929415;29;20130;-82
2023/10/17 09:37:50;;;;;;;101.90;35.35;;;18.20;99.90;;;;;;4937515;29;20031;-82
2023/10/17 09:40:53;;;;;;;24.83;13.68;;;18.10;99.90;;;;;;4922520;29;20031;-82
2023/10/17 09:43:17;;;;;;;15.30;8.75;;;18.20;99.90;;;;;;4941732;29;20079;-83
2023/10/17 09:45:47;;;;;;;17.33;8.80;;;18.30;99.90;;;;;;4919725;29;20038;-80
2023/10/17 09:48:17;;;;;;;12.60;7.38;;;18.50;99.90;;;;;;4921888;29;20040;-85
2023/10/17 09:50:51;;;;;;;11.10;8.40;;;18.70;99.90;;;;;;4922014;29;20031;-82
2023/10/17 09:53:19;;;;;;;16.45;8.15;;;18.90;99.90;;;;;;4906162;29;20529;-82
2023/10/17 09:55:47;;;;;;;15.18;7.85;;;19.10;99.90;;;;;;4897827;29;20450;-82
2023/10/17 09:58:19;;;;;;;13.20;7.57;;;19.20;99.90;;;;;;4902908;29;20481;-82
2023/10/17 10:01:00;;;;;;;8.68;7.78;;;19.40;99.90;;;;;;4903071;29;20406;-82
2023/10/17 10:03:30;;;;;;;10.27;7.82;;;19.50;99.90;;;;;;4918194;29;20430;-82
2023/10/17 10:06:32;;;;;;;16.75;8.45;;;19.80;99.90;;;;;;4924072;29;20020;-81
2023/10/17 10:09:05;;;;;;;11.85;8.85;;;19.80;99.90;;;;;;4887072;29;20077;-79
2023/10/17 10:11:55;;;;;;;11.70;9.35;;;20.00;99.90;;;;;;4919734;29;20032;-82
2023/10/17 10:14:36;;;;;;;16.83;9.55;;;19.90;99.90;;;;;;4887052;29;20173;-82
2023/10/17 10:17:06;;;;;;;15.63;10.00;;;19.80;99.90;;;;;;4887332;29;20438;-80
2023/10/17 10:19:55;;;;;;;12.70;9.73;;;20.00;99.90;;;;;;4902572;29;20118;-81
2023/10/17 10:22:51;;;;;;;13.77;9.90;;;20.20;99.90;;;;;;4876229;29;20107;-82
2023/10/17 10:25:17;;;;;;;10.77;9.70;;;20.40;99.90;;;;;;4913092;29;20032;-82
2023/10/17 10:27:46;;;;;;;16.08;10.27;;;20.60;99.90;;;;;;4909954;29;20024;-83
2023/10/17 10:30:36;;;;;;;13.18;10.38;;;20.70;99.90;;;;;;4907199;29;20122;-83
2023/10/17 10:33:03;;;;;;;14.63;10.35;;;21.00;99.90;;;;;;4900919;29;20040;-83
2023/10/17 10:35:32;;;;;;;15.70;11.60;;;21.20;99.90;;;;;;4926508;29;20543;-82
2023/10/17 10:38:02;;;;;;;12.32;11.00;;;21.60;99.90;;;;;;4920610;29;20493;-86
2023/10/17 10:40:32;;;;;;;16.88;11.40;;;21.70;99.90;;;;;;4905804;29;20030;-80
2023/10/17 10:43:04;;;;;;;11.75;10.60;;;21.70;99.90;;;;;;4938235;29;20094;-80
2023/10/17 10:45:55;;;;;;;12.05;10.77;;;21.60;99.90;;;;;;4937850;29;20048;-83
2023/10/17 10:48:22;;;;;;;11.07;10.32;;;21.70;99.90;;;;;;4905014;29;20426;-84
2023/10/17 10:50:57;;;;;;;12.20;11.00;;;21.60;99.90;;;;;;4928439;29;20016;-84
2023/10/17 10:53:32;;;;;;;12.05;11.02;;;21.50;99.90;;;;;;4901975;29;20036;-85
2023/10/17 10:56:13;;;;;;;11.75;10.90;;;21.60;99.90;;;;;;4897366;29;20430;-83
2023/10/17 10:58:51;;;;;;;12.38;11.30;;;21.50;99.90;;;;;;4920846;29;20457;-84
2023/10/17 11:01:25;;;;;;;17.15;11.50;;;21.50;99.90;;;;;;4901675;29;20456;-85
2023/10/17 11:03:52;;;;;;;11.40;10.40;;;21.70;99.90;;;;;;4886420;29;20039;-84
2023/10/17 11:06:23;;;;;;;14.55;10.10;;;21.80;99.90;;;;;;4932294;29;20477;-84
2023/10/17 11:08:51;;;;;;;10.45;9.18;;;21.80;99.90;;;;;;4920706;29;20103;-84
2023/10/17 11:11:22;;;;;;;12.48;8.98;;;21.70;99.90;;;;;;4905085;29;20453;-83
2023/10/17 11:13:54;;;;;;;11.02;8.00;;;21.60;99.90;;;;;;4919873;29;20047;-84
2023/10/17 11:16:24;;;;;;;9.55;8.10;;;21.60;99.90;;;;;;4915111;29;20031;-84
2023/10/17 11:18:52;;;;;;;8.45;7.70;;;21.60;99.90;;;;;;4920696;29;20110;-85
2023/10/17 11:21:22;;;;;;;11.68;9.48;;;21.50;99.90;;;;;;4920276;29;20024;-84
2023/10/17 11:24:09;;;;;;;11.30;8.93;;;21.40;99.90;;;;;;4919759;29;20031;-84
2023/10/17 11:26:42;;;;;;;15.02;9.57;;;21.70;99.90;;;;;;4920272;29;20091;-85
2023/10/17 11:29:09;;;;;;;9.35;8.55;;;21.90;99.90;;;;;;4904656;29;20374;-85
2023/10/17 11:31:41;;;;;;;13.00;8.73;;;21.80;99.90;;;;;;4919703;29;20020;-85
2023/10/17 11:34:19;;;;;;;11.07;9.10;;;21.90;99.90;;;;;;4920081;29;20447;-82
2023/10/17 11:36:52;;;;;;;10.57;9.55;;;22.10;99.90;;;;;;4920347;29;20091;-84
2023/10/17 11:39:19;;;;;;;11.52;8.65;;;21.90;99.90;;;;;;4919109;29;20448;-83
2023/10/17 11:41:52;;;;;;;11.13;8.18;;;21.90;99.90;;;;;;4932892;29;20028;-84
2023/10/17 11:44:31;;;;;;;9.65;8.65;;;21.70;99.90;;;;;;4898779;29;20052;-84
2023/10/17 11:47:07;;;;;;;9.63;8.07;;;21.70;99.90;;;;;;4938202;29;20031;-84
2023/10/17 11:49:41;;;;;;;12.57;8.68;;;21.80;99.90;;;;;;4953578;28;20031;-83
2023/10/17 11:52:10;;;;;;;9.60;8.75;;;21.90;99.90;;;;;;4920098;29;20129;-84
2023/10/17 11:55:11;;;;;;;10.10;8.90;;;21.90;99.90;;;;;;4935933;29;20040;-84
2023/10/17 11:57:38;;;;;;;11.10;8.95;;;21.80;99.90;;;;;;4935699;29;20040;-83
2023/10/17 12:02:49;;;;;;;10.57;9.50;;;21.70;99.90;;;;;;4954747;29;20059;-85
2023/10/17 12:05:22;;;;;;;10.65;8.75;;;21.50;99.90;;;;;;4922836;29;20437;-87
2023/10/17 12:07:57;;;;;;;9.90;8.90;;;21.40;99.90;;;;;;4939186;29;20038;-83
2023/10/17 12:10:28;;;;;;;12.20;8.82;;;21.30;99.90;;;;;;4954505;29;20027;-81
2023/10/17 12:13:06;;;;;;;11.18;10.07;;;21.40;99.90;;;;;;4946560;29;20493;-81
2023/10/17 12:15:34;;;;;;;12.70;10.90;;;21.50;99.90;;;;;;4941479;29;20063;-82
2023/10/17 12:18:00;;;;;;;12.38;11.38;;;21.60;99.90;;;;;;4933460;29;20055;-80
2023/10/17 12:20:30;;;;;;;12.90;11.60;;;22.00;99.90;;;;;;4936505;29;20027;-78
2023/10/17 12:22:59;;;;;;;14.00;12.55;;;22.40;99.90;;;;;;4936700;29;20315;-80
2023/10/17 12:25:26;;;;;;;13.77;12.68;;;22.40;99.90;;;;;;4940330;29;20015;-79
2023/10/17 12:27:58;;;;;;;14.35;13.20;;;22.30;99.90;;;;;;4955519;29;20023;-79
2023/10/17 12:30:44;;;;;;;14.50;13.43;;;22.10;99.90;;;;;;4922495;29;20473;-80
2023/10/17 12:33:23;;;;;;;13.60;12.60;;;22.20;99.90;;;;;;4955276;29;20042;-80
2023/10/17 12:35:52;;;;;;;12.98;12.00;;;22.10;99.90;;;;;;4922327;29;20432;-79
2023/10/17 12:38:25;;;;;;;12.75;11.43;;;22.00;99.90;;;;;;4938116;29;20070;-78
2023/10/17 12:40:53;;;;;;;15.32;10.77;;;21.90;99.90;;;;;;4955336;29;20059;-80
2023/10/17 12:43:19;;;;;;;11.85;10.60;;;21.80;99.90;;;;;;4944869;29;20019;-80
2023/10/17 12:45:46;;;;;;;11.27;10.18;;;21.70;99.90;;;;;;4907340;29;20489;-78
2023/10/17 12:48:14;;;;;;;10.35;9.43;;;21.50;99.90;;;;;;4935550;29;20484;-77
2023/10/17 12:50:44;;;;;;;11.05;9.35;;;21.50;99.90;;;;;;4935913;29;20385;-78
2023/10/17 12:53:14;;;;;;;9.95;9.00;;;21.30;99.90;;;;;;4928041;29;20437;-78
2023/10/17 12:55:41;;;;;;;9.68;8.88;;;21.10;99.90;;;;;;4902420;29;20072;-76
2023/10/17 12:58:10;;;;;;;9.73;8.93;;;21.10;99.90;;;;;;4918691;29;20111;-81
2023/10/17 13:00:38;;;;;;;12.90;8.98;;;20.90;99.90;;;;;;4934934;29;20462;-81
2023/10/17 13:03:07;;;;;;;9.55;8.57;;;20.90;99.90;;;;;;4903613;29;20036;-79
2023/10/17 13:05:34;;;;;;;11.70;8.82;;;21.00;99.90;;;;;;4922479;29;20031;-78
2023/10/17 13:08:01;;;;;;;9.05;8.20;;;20.90;99.90;;;;;;4935778;29;20035;-78
2023/10/17 13:10:30;;;;;;;8.85;8.00;;;21.00;99.90;;;;;;4935774;29;20095;-78
2023/10/17 13:12:58;;;;;;;10.35;8.30;;;20.80;99.90;;;;;;4922705;29;20393;-79
2023/10/17 13:15:25;;;;;;;10.95;8.40;;;20.90;99.90;;;;;;4921378;29;20019;-78
2023/10/17 13:17:55;;;;;;;12.73;9.20;;;21.00;99.90;;;;;;4903309;29;20028;-80
2023/10/17 13:20:28;;;;;;;9.52;8.93;;;21.00;99.90;;;;;;4918723;29;20135;-80
2023/10/17 13:22:59;;;;;;;11.57;10.43;;;20.80;99.90;;;;;;4936269;29;20031;-79
2023/10/17 13:25:26;;;;;;;10.35;9.65;;;20.70;99.90;;;;;;4933066;29;20665;-78
2023/10/17 13:27:57;;;;;;;11.48;10.35;;;20.70;99.90;;;;;;4898427;29;20116;-79
2023/10/17 13:30:27;;;;;;;;;;;20.80;99.90;;;;;;4915474;29;20509;-80
2023/10/17 13:32:57;;;;;;;9.88;9.00;;;20.80;99.90;;;;;;4916366;29;19911;-80
2023/10/17 13:35:26;;;;;;;10.70;9.60;;;20.90;99.90;;;;;;4903475;29;20043;-80
2023/10/17 13:37:52;;;;;;;10.98;10.05;;;20.70;99.90;;;;;;4918614;29;20478;-80
2023/10/17 13:40:22;;;;;;;12.52;10.88;;;20.60;99.90;;;;;;4918289;29;20073;-78
2023/10/17 13:42:53;;;;;;;10.80;9.77;;;20.50;99.90;;;;;;4935650;29;20393;-79
2023/10/17 13:45:22;;;;;;;12.45;10.07;;;20.60;99.90;;;;;;4935277;29;20110;-79
2023/10/17 13:47:56;;;;;;;11.73;10.68;;;20.60;99.90;;;;;;4935355;29;20036;-79
2023/10/17 13:50:25;;;;;;;11.05;10.20;;;20.60;99.90;;;;;;4935586;29;20367;-76
2023/10/17 13:52:54;;;;;;;10.80;10.00;;;20.60;99.90;;;;;;4935370;29;20031;-77
2023/10/17 13:55:27;;;;;;;10.80;9.70;;;20.60;99.90;;;;;;4935491;29;20038;-78
2023/10/17 13:58:01;;;;;;;10.90;10.00;;;20.60;99.90;;;;;;4935564;29;20111;-78
2023/10/17 14:01:26;;;;;;;9.70;8.80;;;20.40;99.90;;;;;;4919037;29;20032;-77
2023/10/17 14:03:27;;;;;;;9.43;8.63;;;20.40;99.90;;;;;;4933042;29;20046;-79
2023/10/17 14:27:23;;;;;;;8.80;6.72;;;19.60;99.90;;;;;;4947842;28;20020;-77
2023/10/17 14:29:51;;;;;;;7.93;6.65;;;19.50;99.90;;;;;;4938468;29;20028;-78
2023/10/17 14:32:23;;;;;;;6.72;6.22;;;19.40;99.90;;;;;;4937358;29;20024;-77
2023/10/17 14:34:50;;;;;;;9.40;6.53;;;19.20;99.90;;;;;;4938998;29;20051;-80
2023/10/17 14:37:22;;;;;;;8.13;6.15;;;19.20;99.90;;;;;;4936868;29;20135;-81
2023/10/17 14:39:48;;;;;;;7.50;6.40;;;19.10;99.90;;;;;;4922036;29;20032;-89
2023/10/17 14:42:27;;;;;;;8.20;6.65;;;19.10;99.90;;;;;;4906012;29;20028;-91
2023/10/17 14:44:55;;;;;;;6.93;6.30;;;19.10;99.90;;;;;;4904994;29;20032;-87
2023/10/17 14:47:22;;;;;;;13.25;6.63;;;19.10;99.90;;;;;;4904064;29;20028;-86
2023/10/17 14:49:48;;;;;;;6.97;6.32;;;19.00;99.90;;;;;;4903596;29;20024;-87
2023/10/17 14:52:16;;;;;;;8.43;6.45;;;19.00;99.90;;;;;;4904247;29;20044;-85
2023/10/17 14:54:43;;;;;;;10.18;6.40;;;19.00;99.90;;;;;;4903459;29;20044;-87
2023/10/17 14:57:10;;;;;;;8.82;7.72;;;18.90;99.90;;;;;;4903526;29;20028;-87
2023/10/17 14:59:41;;;;;;;8.13;7.43;;;18.80;99.90;;;;;;4902703;29;20032;-90
2023/10/17 15:02:10;;;;;;;9.68;7.50;;;18.90;99.90;;;;;;4922569;29;20532;-90
2023/10/17 15:04:38;;;;;;;8.80;7.15;;;18.80;99.90;;;;;;4922357;29;20119;-88
2023/10/17 15:07:06;;;;;;;7.72;6.60;;;18.70;99.90;;;;;;4921946;29;20028;-90
2023/10/17 15:09:44;;;;;;;7.85;7.03;;;18.70;99.90;;;;;;4922330;29;20019;-89
2023/10/17 15:12:36;;;;;;;10.63;6.30;;;18.60;99.90;;;;;;4924954;29;20087;-89
2023/10/17 15:15:11;;;;;;;6.55;5.95;;;18.60;99.90;;;;;;4932250;29;20032;-87
2023/10/17 15:17:38;;;;;;;7.07;6.38;;;18.60;99.90;;;;;;4921558;29;20028;-88
2023/10/17 15:20:13;;;;;;;7.47;6.25;;;18.50;99.90;;;;;;4921771;29;20038;-89
2023/10/17 15:22:44;;;;;;;7.15;6.15;;;18.50;99.90;;;;;;4938696;29;20038;-91